sensor_id;sensor_type;location;lat;lon;timestamp;pressure;altitude;pressure_sealevel;temperature;humidity
25084;BME280;13075;55.682;37.564;2023-02-28T00:00:25;99996.16;;;-1.52;100.00
25084;BME280;13075;55.682;37.564;2023-02-28T00:02:51;99988.94;;;-1.49;100.00
25084;BME280;13075;55.682;37.564;2023-02-28T00:05:19;99986.56;;;-1.41;100.00
25084;BME280;13075;55.682;37.564;2023-02-28T00:07:45;99982.03;;;-1.39;100.00
25084;BME280;13075;55.682;37.564;2023-02-28T00:10:13;99984.41;;;-1.47;100.00
25084;BME280;13075;55.682;37.564;2023-02-28T00:12:40;99983.19;;;-1.54;100.00
25084;BME280;13075;55.682;37.564;2023-02-28T00:15:07;99979.19;;;-1.36;100.00
25084;BME280;13075;55.682;37.564;2023-02-28T00:17:33;99976.03;;;-1.17;100.00
25084;BME280;13075;55.682;37.564;2023-02-28T00:19:58;99968.56;;;-1.45;100.00
25084;BME280;13075;55.682;37.564;2023-02-28T00:22:27;99966.59;;;-1.54;100.00
25084;BME280;13075;55.682;37.564;2023-02-28T00:24:53;99961.09;;;-1.28;100.00
25084;BME280;13075;55.682;37.564;2023-02-28T00:27:18;99963.91;;;-1.42;100.00
25084;BME280;13075;55.682;37.564;2023-02-28T00:29:46;99952.81;;;-1.34;100.00
25084;BME280;13075;55.682;37.564;2023-02-28T00:32:12;99952.13;;;-1.36;100.00
25084;BME280;13075;55.682;37.564;2023-02-28T00:34:38;99958.56;;;-1.40;100.00
25084;BME280;13075;55.682;37.564;2023-02-28T00:37:05;99961.84;;;-1.49;100.00
25084;BME280;13075;55.682;37.564;2023-02-28T00:39:34;99958.34;;;-1.37;100.00
25084;BME280;13075;55.682;37.564;2023-02-28T00:42:00;99955.53;;;-1.81;100.00
25084;BME280;13075;55.682;37.564;2023-02-28T00:44:25;99959.66;;;-1.66;100.00
25084;BME280;13075;55.682;37.564;2023-02-28T00:46:52;99951.28;;;-1.71;100.00
25084;BME280;13075;55.682;37.564;2023-02-28T00:49:24;99952.06;;;-1.82;100.00
25084;BME280;13075;55.682;37.564;2023-02-28T00:51:49;99937.81;;;-1.91;100.00
25084;BME280;13075;55.682;37.564;2023-02-28T00:54:18;99935.41;;;-1.70;100.00
25084;BME280;13075;55.682;37.564;2023-02-28T00:56:46;99940.94;;;-1.62;100.00
25084;BME280;13075;55.682;37.564;2023-02-28T00:59:16;99937.97;;;-1.57;100.00
25084;BME280;13075;55.682;37.564;2023-02-28T01:01:44;99934.69;;;-1.72;100.00
25084;BME280;13075;55.682;37.564;2023-02-28T01:04:11;99936.31;;;-1.82;100.00
25084;BME280;13075;55.682;37.564;2023-02-28T01:06:36;99935.75;;;-1.98;100.00
25084;BME280;13075;55.682;37.564;2023-02-28T01:09:04;99925.28;;;-1.98;100.00
25084;BME280;13075;55.682;37.564;2023-02-28T01:11:30;99926.41;;;-1.90;100.00
25084;BME280;13075;55.682;37.564;2023-02-28T01:13:57;99926.13;;;-1.74;100.00
25084;BME280;13075;55.682;37.564;2023-02-28T01:16:23;99916.41;;;-1.84;100.00
25084;BME280;13075;55.682;37.564;2023-02-28T01:18:48;99916.97;;;-1.68;100.00
25084;BME280;13075;55.682;37.564;2023-02-28T01:21:17;99908.47;;;-1.72;100.00
25084;BME280;13075;55.682;37.564;2023-02-28T01:23:44;99905.09;;;-1.85;100.00
25084;BME280;13075;55.682;37.564;2023-02-28T01:26:14;99899.91;;;-1.98;100.00
25084;BME280;13075;55.682;37.564;2023-02-28T01:28:40;99889.97;;;-1.81;100.00
25084;BME280;13075;55.682;37.564;2023-02-28T01:31:07;99885.44;;;-2.14;100.00
25084;BME280;13075;55.682;37.564;2023-02-28T01:33:33;99873.13;;;-2.14;100.00
25084;BME280;13075;55.682;37.564;2023-02-28T01:36:03;99879.91;;;-1.64;100.00
25084;BME280;13075;55.682;37.564;2023-02-28T01:38:29;99873.03;;;-2.12;100.00
25084;BME280;13075;55.682;37.564;2023-02-28T01:40:55;99860.16;;;-2.39;100.00
25084;BME280;13075;55.682;37.564;2023-02-28T01:43:26;99869.25;;;-2.08;100.00
25084;BME280;13075;55.682;37.564;2023-02-28T01:45:55;99864.41;;;-2.02;100.00
25084;BME280;13075;55.682;37.564;2023-02-28T01:48:26;99866.47;;;-1.94;100.00
25084;BME280;13075;55.682;37.564;2023-02-28T01:50:54;99859.47;;;-2.06;100.00
25084;BME280;13075;55.682;37.564;2023-02-28T01:53:35;99848.88;;;-1.70;100.00
25084;BME280;13075;55.682;37.564;2023-02-28T01:56:06;99834.53;;;-2.23;100.00
25084;BME280;13075;55.682;37.564;2023-02-28T01:58:34;99833.84;;;-2.14;100.00
25084;BME280;13075;55.682;37.564;2023-02-28T02:01:00;99834.31;;;-2.09;100.00
25084;BME280;13075;55.682;37.564;2023-02-28T02:03:29;99829.13;;;-1.98;100.00
25084;BME280;13075;55.682;37.564;2023-02-28T02:05:55;99827.53;;;-2.11;100.00
25084;BME280;13075;55.682;37.564;2023-02-28T02:08:23;99830.13;;;-1.88;100.00
25084;BME280;13075;55.682;37.564;2023-02-28T02:11:01;99828.47;;;-1.88;100.00
25084;BME280;13075;55.682;37.564;2023-02-28T02:13:47;99820.94;;;-1.93;100.00
25084;BME280;13075;55.682;37.564;2023-02-28T02:25:19;99800.16;;;-2.07;100.00
25084;BME280;13075;55.682;37.564;2023-02-28T02:30:42;99797.72;;;-2.21;100.00
25084;BME280;13075;55.682;37.564;2023-02-28T02:35:49;99795.94;;;-2.44;100.00
25084;BME280;13075;55.682;37.564;2023-02-28T02:43:40;99787.13;;;-2.20;100.00
25084;BME280;13075;55.682;37.564;2023-02-28T02:46:25;99781.31;;;-2.12;100.00
25084;BME280;13075;55.682;37.564;2023-02-28T02:48:54;99774.25;;;-2.23;100.00
25084;BME280;13075;55.682;37.564;2023-02-28T02:51:22;99786.53;;;-2.23;100.00
25084;BME280;13075;55.682;37.564;2023-02-28T02:53:54;99761.59;;;-2.29;100.00
25084;BME280;13075;55.682;37.564;2023-02-28T02:56:23;99762.38;;;-2.16;100.00
25084;BME280;13075;55.682;37.564;2023-02-28T02:58:50;99768.53;;;-2.17;100.00
25084;BME280;13075;55.682;37.564;2023-02-28T03:01:21;99745.41;;;-2.34;100.00
25084;BME280;13075;55.682;37.564;2023-02-28T03:04:00;99744.38;;;-2.20;100.00
25084;BME280;13075;55.682;37.564;2023-02-28T03:06:26;99738.81;;;-2.74;100.00
25084;BME280;13075;55.682;37.564;2023-02-28T03:08:53;99742.13;;;-2.48;100.00
25084;BME280;13075;55.682;37.564;2023-02-28T03:11:21;99732.56;;;-2.26;100.00
25084;BME280;13075;55.682;37.564;2023-02-28T03:22:39;99709.13;;;-2.27;100.00
25084;BME280;13075;55.682;37.564;2023-02-28T03:27:53;99705.66;;;-2.28;100.00
25084;BME280;13075;55.682;37.564;2023-02-28T03:30:29;99697.38;;;-2.45;100.00
25084;BME280;13075;55.682;37.564;2023-02-28T03:33:24;99690.16;;;-2.31;100.00
25084;BME280;13075;55.682;37.564;2023-02-28T03:35:59;99675.06;;;-2.05;100.00
25084;BME280;13075;55.682;37.564;2023-02-28T03:38:37;99682.47;;;-2.10;100.00
25084;BME280;13075;55.682;37.564;2023-02-28T03:41:15;99689.72;;;-2.25;100.00
25084;BME280;13075;55.682;37.564;2023-02-28T03:43:47;99682.03;;;-2.39;100.00
25084;BME280;13075;55.682;37.564;2023-02-28T03:46:18;99674.88;;;-2.37;100.00
25084;BME280;13075;55.682;37.564;2023-02-28T03:49:00;99666.84;;;-2.58;100.00
25084;BME280;13075;55.682;37.564;2023-02-28T03:51:28;99667.16;;;-2.38;100.00
25084;BME280;13075;55.682;37.564;2023-02-28T03:53:59;99652.19;;;-2.71;100.00
25084;BME280;13075;55.682;37.564;2023-02-28T03:56:38;99659.19;;;-2.37;100.00
25084;BME280;13075;55.682;37.564;2023-02-28T04:01:38;99636.19;;;-2.56;100.00
25084;BME280;13075;55.682;37.564;2023-02-28T04:04:10;99642.13;;;-2.42;100.00
25084;BME280;13075;55.682;37.564;2023-02-28T04:06:36;99633.91;;;-2.49;100.00
25084;BME280;13075;55.682;37.564;2023-02-28T04:09:03;99625.28;;;-2.27;100.00
25084;BME280;13075;55.682;37.564;2023-02-28T04:11:38;99617.13;;;-2.46;100.00
25084;BME280;13075;55.682;37.564;2023-02-28T04:14:05;99597.13;;;-2.47;100.00
25084;BME280;13075;55.682;37.564;2023-02-28T04:16:32;99613.31;;;-2.42;100.00
25084;BME280;13075;55.682;37.564;2023-02-28T04:18:58;99615.59;;;-2.49;100.00
25084;BME280;13075;55.682;37.564;2023-02-28T04:21:32;99611.81;;;-2.23;100.00
25084;BME280;13075;55.682;37.564;2023-02-28T04:23:58;99610.75;;;-2.09;100.00
25084;BME280;13075;55.682;37.564;2023-02-28T04:26:36;99608.16;;;-2.09;100.00
25084;BME280;13075;55.682;37.564;2023-02-28T04:29:04;99602.03;;;-1.99;100.00
25084;BME280;13075;55.682;37.564;2023-02-28T04:31:30;99614.47;;;-2.12;100.00
25084;BME280;13075;55.682;37.564;2023-02-28T04:33:56;99605.03;;;-2.14;100.00
25084;BME280;13075;55.682;37.564;2023-02-28T04:36:22;99601.44;;;-2.13;100.00
25084;BME280;13075;55.682;37.564;2023-02-28T04:38:48;99597.28;;;-2.05;100.00
25084;BME280;13075;55.682;37.564;2023-02-28T04:41:15;99599.22;;;-2.07;100.00
25084;BME280;13075;55.682;37.564;2023-02-28T04:43:40;99598.25;;;-2.28;100.00
25084;BME280;13075;55.682;37.564;2023-02-28T04:46:06;99587.75;;;-1.83;100.00
25084;BME280;13075;55.682;37.564;2023-02-28T04:48:35;99588.94;;;-1.88;100.00
25084;BME280;13075;55.682;37.564;2023-02-28T04:51:03;99580.59;;;-2.04;100.00
25084;BME280;13075;55.682;37.564;2023-02-28T04:53:30;99572.72;;;-2.04;100.00
25084;BME280;13075;55.682;37.564;2023-02-28T04:55:56;99576.09;;;-2.13;100.00
25084;BME280;13075;55.682;37.564;2023-02-28T04:58:22;99567.34;;;-1.80;100.00
25084;BME280;13075;55.682;37.564;2023-02-28T05:00:52;99562.16;;;-1.91;100.00
25084;BME280;13075;55.682;37.564;2023-02-28T05:03:19;99561.03;;;-1.77;100.00
25084;BME280;13075;55.682;37.564;2023-02-28T05:05:46;99554.28;;;-1.91;100.00
25084;BME280;13075;55.682;37.564;2023-02-28T05:08:12;99548.50;;;-1.63;100.00
25084;BME280;13075;55.682;37.564;2023-02-28T05:10:38;99547.59;;;-2.06;100.00
25084;BME280;13075;55.682;37.564;2023-02-28T05:13:04;99536.59;;;-1.67;100.00
25084;BME280;13075;55.682;37.564;2023-02-28T05:15:29;99543.66;;;-1.78;100.00
25084;BME280;13075;55.682;37.564;2023-02-28T05:17:55;99529.19;;;-1.62;97.17
25084;BME280;13075;55.682;37.564;2023-02-28T05:20:21;99525.94;;;-1.22;92.51
25084;BME280;13075;55.682;37.564;2023-02-28T05:22:47;99521.19;;;-1.29;90.00
25084;BME280;13075;55.682;37.564;2023-02-28T05:25:16;99501.84;;;-1.48;88.16
25084;BME280;13075;55.682;37.564;2023-02-28T05:27:43;99485.53;;;-0.90;87.34
25084;BME280;13075;55.682;37.564;2023-02-28T05:30:10;99482.22;;;-0.92;86.65
25084;BME280;13075;55.682;37.564;2023-02-28T05:32:37;99487.16;;;-0.98;84.92
25084;BME280;13075;55.682;37.564;2023-02-28T05:35:04;99473.47;;;-1.02;84.35
25084;BME280;13075;55.682;37.564;2023-02-28T05:37:29;99478.91;;;-0.94;85.45
25084;BME280;13075;55.682;37.564;2023-02-28T05:39:55;99470.78;;;-1.32;87.14
25084;BME280;13075;55.682;37.564;2023-02-28T05:42:21;99470.19;;;-1.15;85.50
25084;BME280;13075;55.682;37.564;2023-02-28T05:44:46;99458.28;;;0.88;78.59
25084;BME280;13075;55.682;37.564;2023-02-28T05:47:12;99428.31;;;2.35;67.40
25084;BME280;13075;55.682;37.564;2023-02-28T05:49:41;99431.53;;;4.09;61.28
25084;BME280;13075;55.682;37.564;2023-02-28T05:52:07;99413.56;;;7.16;53.03
25084;BME280;13075;55.682;37.564;2023-02-28T05:54:33;99403.78;;;8.11;58.56
25084;BME280;13075;55.682;37.564;2023-02-28T05:56:59;99405.78;;;7.59;57.77
25084;BME280;13075;55.682;37.564;2023-02-28T05:59:24;99394.38;;;9.55;59.67
25084;BME280;13075;55.682;37.564;2023-02-28T06:01:50;99382.31;;;9.04;57.51
25084;BME280;13075;55.682;37.564;2023-02-28T06:04:20;99390.28;;;9.59;56.57
25084;BME280;13075;55.682;37.564;2023-02-28T06:06:49;99383.56;;;7.37;53.73
25084;BME280;13075;55.682;37.564;2023-02-28T06:09:16;99382.16;;;5.37;55.42
25084;BME280;13075;55.682;37.564;2023-02-28T06:11:41;99385.97;;;3.39;55.04
25084;BME280;13075;55.682;37.564;2023-02-28T06:14:09;99387.59;;;4.64;56.15
25084;BME280;13075;55.682;37.564;2023-02-28T06:16:39;99364.81;;;6.49;54.22
25084;BME280;13075;55.682;37.564;2023-02-28T06:19:05;99339.50;;;6.90;54.29
25084;BME280;13075;55.682;37.564;2023-02-28T06:21:31;99337.69;;;8.91;54.94
25084;BME280;13075;55.682;37.564;2023-02-28T06:23:57;99329.84;;;12.07;56.33
25084;BME280;13075;55.682;37.564;2023-02-28T06:26:23;99319.63;;;12.22;54.06
25084;BME280;13075;55.682;37.564;2023-02-28T06:28:49;99326.63;;;13.65;50.12
25084;BME280;13075;55.682;37.564;2023-02-28T06:31:17;99296.69;;;15.43;42.90
25084;BME280;13075;55.682;37.564;2023-02-28T06:33:45;99298.47;;;15.49;40.42
25084;BME280;13075;55.682;37.564;2023-02-28T06:36:12;99311.56;;;12.78;40.75
25084;BME280;13075;55.682;37.564;2023-02-28T06:38:38;99317.06;;;9.94;42.43
25084;BME280;13075;55.682;37.564;2023-02-28T06:41:05;99310.13;;;9.53;42.17
25084;BME280;13075;55.682;37.564;2023-02-28T06:43:33;99304.81;;;8.84;42.73
25084;BME280;13075;55.682;37.564;2023-02-28T06:46:01;99319.06;;;7.35;43.97
25084;BME280;13075;55.682;37.564;2023-02-28T06:48:27;99307.47;;;6.55;45.45
25084;BME280;13075;55.682;37.564;2023-02-28T06:51:10;99317.69;;;4.65;46.39
25084;BME280;13075;55.682;37.564;2023-02-28T06:53:36;99310.28;;;4.53;48.47
25084;BME280;13075;55.682;37.564;2023-02-28T06:56:07;99304.75;;;3.65;48.92
25084;BME280;13075;55.682;37.564;2023-02-28T06:58:33;99296.50;;;3.68;50.42
25084;BME280;13075;55.682;37.564;2023-02-28T07:00:59;99285.06;;;3.60;50.72
25084;BME280;13075;55.682;37.564;2023-02-28T07:03:24;99264.78;;;4.01;50.85
25084;BME280;13075;55.682;37.564;2023-02-28T07:05:50;99254.69;;;3.88;51.53
25084;BME280;13075;55.682;37.564;2023-02-28T07:08:16;99245.09;;;4.03;51.28
25084;BME280;13075;55.682;37.564;2023-02-28T07:10:42;99238.50;;;3.99;51.65
25084;BME280;13075;55.682;37.564;2023-02-28T07:13:08;99247.75;;;3.71;52.59
25084;BME280;13075;55.682;37.564;2023-02-28T07:15:35;99232.69;;;4.12;51.33
25084;BME280;13075;55.682;37.564;2023-02-28T07:18:01;99232.63;;;4.60;51.15
25084;BME280;13075;55.682;37.564;2023-02-28T07:20:26;99228.41;;;3.95;52.90
25084;BME280;13075;55.682;37.564;2023-02-28T07:22:52;99211.69;;;3.70;52.41
25084;BME280;13075;55.682;37.564;2023-02-28T07:25:26;99217.16;;;3.93;53.12
25084;BME280;13075;55.682;37.564;2023-02-28T07:27:53;99227.66;;;3.36;55.61
25084;BME280;13075;55.682;37.564;2023-02-28T07:30:19;99205.56;;;3.86;54.95
25084;BME280;13075;55.682;37.564;2023-02-28T07:32:45;99197.50;;;4.66;53.26
25084;BME280;13075;55.682;37.564;2023-02-28T07:35:11;99207.53;;;4.24;53.85
25084;BME280;13075;55.682;37.564;2023-02-28T07:37:37;99200.34;;;4.57;53.72
25084;BME280;13075;55.682;37.564;2023-02-28T07:40:04;99186.72;;;4.68;53.26
25084;BME280;13075;55.682;37.564;2023-02-28T07:42:34;99189.59;;;4.50;53.81
25084;BME280;13075;55.682;37.564;2023-02-28T07:45:03;99178.63;;;4.69;53.81
25084;BME280;13075;55.682;37.564;2023-02-28T07:47:30;99169.06;;;4.52;55.24
25084;BME280;13075;55.682;37.564;2023-02-28T07:49:56;99177.66;;;4.93;54.87
25084;BME280;13075;55.682;37.564;2023-02-28T07:52:22;99170.19;;;5.27;53.30
25084;BME280;13075;55.682;37.564;2023-02-28T07:54:49;99175.06;;;4.38;54.77
25084;BME280;13075;55.682;37.564;2023-02-28T07:57:15;99169.88;;;4.61;54.65
25084;BME280;13075;55.682;37.564;2023-02-28T07:59:41;99151.25;;;5.08;55.03
25084;BME280;13075;55.682;37.564;2023-02-28T08:02:08;99144.50;;;6.25;52.83
25084;BME280;13075;55.682;37.564;2023-02-28T08:04:35;99138.25;;;5.43;53.61
25084;BME280;13075;55.682;37.564;2023-02-28T08:07:01;99143.59;;;5.58;54.10
25084;BME280;13075;55.682;37.564;2023-02-28T08:09:26;99148.19;;;6.68;51.90
25084;BME280;13075;55.682;37.564;2023-02-28T08:11:52;99143.88;;;6.67;52.23
25084;BME280;13075;55.682;37.564;2023-02-28T08:14:18;99131.97;;;7.34;49.92
25084;BME280;13075;55.682;37.564;2023-02-28T08:16:43;99139.69;;;5.91;52.19
25084;BME280;13075;55.682;37.564;2023-02-28T08:19:09;99156.09;;;5.95;52.44
25084;BME280;13075;55.682;37.564;2023-02-28T08:21:35;99133.66;;;5.15;53.55
25084;BME280;13075;55.682;37.564;2023-02-28T08:24:00;99113.47;;;5.74;53.68
25084;BME280;13075;55.682;37.564;2023-02-28T08:26:26;99114.41;;;5.81;53.61
25084;BME280;13075;55.682;37.564;2023-02-28T08:28:52;99113.78;;;5.56;54.12
25084;BME280;13075;55.682;37.564;2023-02-28T08:31:18;99100.19;;;5.74;53.18
25084;BME280;13075;55.682;37.564;2023-02-28T08:33:43;99084.16;;;5.07;53.93
25084;BME280;13075;55.682;37.564;2023-02-28T08:36:10;99069.31;;;4.98;55.31
25084;BME280;13075;55.682;37.564;2023-02-28T08:38:36;99079.34;;;5.11;55.85
25084;BME280;13075;55.682;37.564;2023-02-28T08:41:05;99077.69;;;5.70;54.79
25084;BME280;13075;55.682;37.564;2023-02-28T08:43:33;99072.72;;;5.29;56.77
25084;BME280;13075;55.682;37.564;2023-02-28T08:45:59;99069.72;;;4.87;56.55
25084;BME280;13075;55.682;37.564;2023-02-28T08:48:30;99151.53;;;4.51;57.28
25084;BME280;13075;55.682;37.564;2023-02-28T08:51:01;99129.44;;;4.67;58.84
25084;BME280;13075;55.682;37.564;2023-02-28T08:53:27;99141.63;;;4.37;58.60
25084;BME280;13075;55.682;37.564;2023-02-28T08:56:03;99138.78;;;4.47;58.54
25084;BME280;13075;55.682;37.564;2023-02-28T08:58:30;99135.94;;;4.56;59.15
25084;BME280;13075;55.682;37.564;2023-02-28T09:00:56;99129.16;;;3.99;60.60
25084;BME280;13075;55.682;37.564;2023-02-28T09:03:22;99136.25;;;4.06;64.04
25084;BME280;13075;55.682;37.564;2023-02-28T09:05:59;99124.91;;;3.82;63.57
25084;BME280;13075;55.682;37.564;2023-02-28T09:08:26;99124.41;;;3.78;65.40
25084;BME280;13075;55.682;37.564;2023-02-28T09:10:52;99108.09;;;4.21;65.10
25084;BME280;13075;55.682;37.564;2023-02-28T09:13:20;99105.03;;;3.94;66.47
25084;BME280;13075;55.682;37.564;2023-02-28T09:15:45;99102.38;;;3.94;67.11
25084;BME280;13075;55.682;37.564;2023-02-28T09:18:11;99084.66;;;4.10;67.87
25084;BME280;13075;55.682;37.564;2023-02-28T09:20:39;99075.69;;;4.11;67.69
25084;BME280;13075;55.682;37.564;2023-02-28T09:23:08;99069.16;;;4.38;66.72
25084;BME280;13075;55.682;37.564;2023-02-28T09:25:35;99060.91;;;4.33;68.06
25084;BME280;13075;55.682;37.564;2023-02-28T09:28:02;99059.50;;;4.45;66.87
25084;BME280;13075;55.682;37.564;2023-02-28T09:30:27;99057.47;;;4.55;67.16
25084;BME280;13075;55.682;37.564;2023-02-28T09:32:53;99061.22;;;4.69;65.24
25084;BME280;13075;55.682;37.564;2023-02-28T09:35:20;99061.41;;;4.90;65.67
25084;BME280;13075;55.682;37.564;2023-02-28T09:37:47;99076.47;;;4.28;67.62
25084;BME280;13075;55.682;37.564;2023-02-28T09:40:14;99082.66;;;4.12;71.05
25084;BME280;13075;55.682;37.564;2023-02-28T09:42:43;99079.22;;;4.43;69.07
25084;BME280;13075;55.682;37.564;2023-02-28T09:45:33;99086.38;;;3.87;71.63
25084;BME280;13075;55.682;37.564;2023-02-28T09:48:04;99082.81;;;4.03;72.60
25084;BME280;13075;55.682;37.564;2023-02-28T09:50:40;99078.19;;;4.13;72.22
25084;BME280;13075;55.682;37.564;2023-02-28T09:53:19;99061.44;;;3.57;75.09
25084;BME280;13075;55.682;37.564;2023-02-28T09:55:50;99045.78;;;4.03;73.30
25084;BME280;13075;55.682;37.564;2023-02-28T09:58:23;99041.81;;;4.46;72.52
25084;BME280;13075;55.682;37.564;2023-02-28T10:01:03;99041.56;;;4.24;73.06
25084;BME280;13075;55.682;37.564;2023-02-28T10:06:36;99028.34;;;3.69;75.16
25084;BME280;13075;55.682;37.564;2023-02-28T10:09:16;99024.13;;;3.36;78.98
25084;BME280;13075;55.682;37.564;2023-02-28T10:11:45;99034.94;;;3.90;78.53
25084;BME280;13075;55.682;37.564;2023-02-28T10:14:22;99022.75;;;3.64;79.21
25084;BME280;13075;55.682;37.564;2023-02-28T10:16:55;99005.78;;;3.98;78.79
25084;BME280;13075;55.682;37.564;2023-02-28T10:24:59;98992.66;;;4.12;77.11
25084;BME280;13075;55.682;37.564;2023-02-28T10:27:32;98986.50;;;4.20;74.77
25084;BME280;13075;55.682;37.564;2023-02-28T10:29:59;98986.06;;;4.08;77.09
25084;BME280;13075;55.682;37.564;2023-02-28T10:32:31;98961.22;;;4.40;76.59
25084;BME280;13075;55.682;37.564;2023-02-28T10:35:14;98969.97;;;4.49;76.72
25084;BME280;13075;55.682;37.564;2023-02-28T10:37:42;98965.75;;;4.31;76.77
25084;BME280;13075;55.682;37.564;2023-02-28T10:40:33;98968.09;;;4.80;73.55
25084;BME280;13075;55.682;37.564;2023-02-28T10:43:05;98969.13;;;3.87;76.61
25084;BME280;13075;55.682;37.564;2023-02-28T10:45:33;98976.75;;;4.20;78.71
25084;BME280;13075;55.682;37.564;2023-02-28T10:48:04;98965.59;;;4.02;81.25
25084;BME280;13075;55.682;37.564;2023-02-28T10:50:50;98971.25;;;4.53;78.79
25084;BME280;13075;55.682;37.564;2023-02-28T10:54:02;98979.97;;;3.61;84.99
25084;BME280;13075;55.682;37.564;2023-02-28T10:56:15;98977.47;;;3.51;87.32
25084;BME280;13075;55.682;37.564;2023-02-28T10:58:46;98962.75;;;3.65;88.86
25084;BME280;13075;55.682;37.564;2023-02-28T11:01:16;98972.03;;;3.53;92.15
25084;BME280;13075;55.682;37.564;2023-02-28T11:03:42;98959.19;;;3.34;93.50
25084;BME280;13075;55.682;37.564;2023-02-28T11:06:36;98965.50;;;3.25;98.37
25084;BME280;13075;55.682;37.564;2023-02-28T11:09:04;98955.06;;;3.31;96.71
25084;BME280;13075;55.682;37.564;2023-02-28T11:11:42;98955.34;;;3.99;93.05
25084;BME280;13075;55.682;37.564;2023-02-28T11:14:20;98942.78;;;3.54;96.73
25084;BME280;13075;55.682;37.564;2023-02-28T11:16:47;98942.31;;;3.51;96.20
25084;BME280;13075;55.682;37.564;2023-02-28T11:19:22;98940.16;;;3.46;100.00
25084;BME280;13075;55.682;37.564;2023-02-28T11:22:04;98924.44;;;3.53;99.41
25084;BME280;13075;55.682;37.564;2023-02-28T11:24:35;98943.09;;;3.98;96.91
25084;BME280;13075;55.682;37.564;2023-02-28T11:27:01;98928.91;;;3.52;99.70
25084;BME280;13075;55.682;37.564;2023-02-28T11:29:32;98929.56;;;3.93;98.42
25084;BME280;13075;55.682;37.564;2023-02-28T11:32:26;98909.28;;;3.77;100.00
25084;BME280;13075;55.682;37.564;2023-02-28T11:35:28;98921.88;;;3.75;100.00
25084;BME280;13075;55.682;37.564;2023-02-28T11:37:57;98920.19;;;4.13;94.29
25084;BME280;13075;55.682;37.564;2023-02-28T11:43:36;98908.69;;;3.67;99.71
25084;BME280;13075;55.682;37.564;2023-02-28T11:46:40;98901.59;;;3.60;99.31
25084;BME280;13075;55.682;37.564;2023-02-28T11:51:49;98896.06;;;3.77;100.00
25084;BME280;13075;55.682;37.564;2023-02-28T11:56:55;98898.44;;;3.95;98.89
25084;BME280;13075;55.682;37.564;2023-02-28T12:22:25;98891.44;;;4.10;100.00
25084;BME280;13075;55.682;37.564;2023-02-28T12:27:36;98883.59;;;3.94;100.00
25084;BME280;13075;55.682;37.564;2023-02-28T12:30:03;98876.78;;;3.69;100.00
25084;BME280;13075;55.682;37.564;2023-02-28T12:32:31;98878.00;;;3.89;100.00
25084;BME280;13075;55.682;37.564;2023-02-28T12:35:03;98868.78;;;3.77;100.00
25084;BME280;13075;55.682;37.564;2023-02-28T12:37:34;98873.13;;;4.01;100.00
25084;BME280;13075;55.682;37.564;2023-02-28T12:40:11;98858.03;;;4.09;100.00
25084;BME280;13075;55.682;37.564;2023-02-28T12:42:41;98857.00;;;3.57;100.00
25084;BME280;13075;55.682;37.564;2023-02-28T12:47:40;98847.38;;;3.95;100.00
25084;BME280;13075;55.682;37.564;2023-02-28T12:50:10;98856.78;;;3.97;100.00
25084;BME280;13075;55.682;37.564;2023-02-28T12:55:38;98839.03;;;3.44;100.00
25084;BME280;13075;55.682;37.564;2023-02-28T13:00:53;98823.31;;;3.82;100.00
25084;BME280;13075;55.682;37.564;2023-02-28T13:03:31;98821.13;;;3.85;100.00
25084;BME280;13075;55.682;37.564;2023-02-28T13:06:28;98810.47;;;3.40;100.00
25084;BME280;13075;55.682;37.564;2023-02-28T13:11:43;98794.72;;;3.15;100.00
25084;BME280;13075;55.682;37.564;2023-02-28T13:19:37;98788.69;;;3.38;100.00
25084;BME280;13075;55.682;37.564;2023-02-28T13:22:03;98787.16;;;3.74;100.00
25084;BME280;13075;55.682;37.564;2023-02-28T13:29:37;98781.97;;;3.58;100.00
25084;BME280;13075;55.682;37.564;2023-02-28T13:34:32;98781.44;;;3.62;100.00
25084;BME280;13075;55.682;37.564;2023-02-28T13:39:56;98794.28;;;3.96;100.00
25084;BME280;13075;55.682;37.564;2023-02-28T13:47:32;98773.53;;;3.54;100.00
25084;BME280;13075;55.682;37.564;2023-02-28T14:06:38;98750.31;;;3.42;100.00
25084;BME280;13075;55.682;37.564;2023-02-28T14:11:42;98753.88;;;3.57;100.00
25084;BME280;13075;55.682;37.564;2023-02-28T14:14:10;98758.94;;;3.66;100.00
25084;BME280;13075;55.682;37.564;2023-02-28T14:16:55;98757.44;;;3.64;100.00
25084;BME280;13075;55.682;37.564;2023-02-28T14:19:27;98763.88;;;3.92;100.00
25084;BME280;13075;55.682;37.564;2023-02-28T14:33:21;98739.13;;;3.62;100.00
25084;BME280;13075;55.682;37.564;2023-02-28T14:38:42;98722.72;;;3.67;100.00
25084;BME280;13075;55.682;37.564;2023-02-28T14:41:17;98718.09;;;3.69;100.00
25084;BME280;13075;55.682;37.564;2023-02-28T14:43:51;98719.63;;;3.86;100.00
25084;BME280;13075;55.682;37.564;2023-02-28T14:46:17;98718.22;;;3.75;100.00
25084;BME280;13075;55.682;37.564;2023-02-28T14:48:49;98715.63;;;3.67;100.00
25084;BME280;13075;55.682;37.564;2023-02-28T14:51:21;98710.13;;;3.46;100.00
25084;BME280;13075;55.682;37.564;2023-02-28T14:53:56;98714.69;;;3.60;100.00
25084;BME280;13075;55.682;37.564;2023-02-28T14:56:26;98722.66;;;3.75;100.00
25084;BME280;13075;55.682;37.564;2023-02-28T14:58:55;98696.47;;;3.65;100.00
25084;BME280;13075;55.682;37.564;2023-02-28T15:01:22;98702.28;;;3.61;100.00
25084;BME280;13075;55.682;37.564;2023-02-28T15:03:57;98704.66;;;3.56;100.00
25084;BME280;13075;55.682;37.564;2023-02-28T15:06:23;98701.34;;;3.76;100.00
25084;BME280;13075;55.682;37.564;2023-02-28T15:09:17;98700.00;;;3.95;100.00
25084;BME280;13075;55.682;37.564;2023-02-28T15:11:48;98705.22;;;3.66;100.00
25084;BME280;13075;55.682;37.564;2023-02-28T15:14:20;98697.94;;;4.05;100.00
25084;BME280;13075;55.682;37.564;2023-02-28T15:16:51;98705.00;;;4.13;100.00
25084;BME280;13075;55.682;37.564;2023-02-28T15:19:26;98691.16;;;4.25;100.00
25084;BME280;13075;55.682;37.564;2023-02-28T15:22:06;98705.00;;;4.13;100.00
25084;BME280;13075;55.682;37.564;2023-02-28T15:27:35;98695.25;;;4.43;100.00